Time;durP1;ratioP1;P1;durP2;ratioP2;P2;SDS_P1;SDS_P2;PMS_P1;PMS_P2;Temp;Humidity;BMP_temperature;BMP_pressure;BME280_temperature;BME280_humidity;BME280_pressure;Samples;Min_cycle;Max_cycle;Signal;HPM_P1;HPM_P2
2024/04/25 00:01:52;;;;;;;0.30;0.30;;;9.70;99.90;;;;;;6329171;22;20048;-67
2024/04/25 00:04:18;;;;;;;2.40;0.50;;;9.70;99.90;;;;;;6329301;22;20432;-67
2024/04/25 00:06:47;;;;;;;0.80;0.57;;;9.70;99.90;;;;;;6328673;22;20000;-67
2024/04/25 00:17:17;;;;;;;2.63;0.43;;;9.60;99.90;;;;;;6110093;23;20012;-67
2024/04/25 00:26:54;;;;;;;0.40;0.40;;;9.60;99.90;;;;;;5958825;24;20045;-67
2024/04/25 00:32:43;;;;;;;1.40;0.60;;;9.50;99.90;;;;;;5914224;24;20107;-68
2024/04/25 00:35:09;;;;;;;1.10;0.53;;;9.50;99.90;;;;;;5992064;23;20015;-67
2024/04/25 00:37:35;;;;;;;0.93;0.57;;;9.50;99.90;;;;;;6051423;23;20000;-66
2024/04/25 00:40:02;;;;;;;1.03;0.53;;;9.50;99.90;;;;;;6312199;22;19996;-66
2024/04/25 00:42:28;;;;;;;0.50;0.50;;;9.50;99.90;;;;;;6327970;22;19996;-67
2024/04/25 00:44:54;;;;;;;0.70;0.57;;;9.50;99.90;;;;;;6285604;22;20010;-67
2024/04/25 00:47:23;;;;;;;0.50;0.50;;;9.50;99.90;;;;;;6328020;22;20000;-67
2024/04/25 00:49:55;;;;;;;0.60;0.50;;;9.50;99.90;;;;;;6327977;22;20004;-67
2024/04/25 00:52:22;;;;;;;0.77;0.63;;;9.60;99.90;;;;;;6327620;22;20336;-67
2024/04/25 00:54:48;;;;;;;0.77;0.50;;;9.50;99.90;;;;;;6328017;22;20757;-67
2024/04/25 00:57:15;;;;;;;0.80;0.63;;;9.50;99.90;;;;;;6327846;22;20015;-66
2024/04/25 00:59:47;;;;;;;1.37;0.67;;;9.60;99.90;;;;;;6323645;22;20382;-68
2024/04/25 01:02:15;;;;;;;1.27;0.60;;;9.60;99.90;;;;;;6324049;22;20436;-67
2024/04/25 01:04:43;;;;;;;0.70;0.63;;;9.60;99.90;;;;;;6325268;22;20000;-66
2024/04/25 01:07:09;;;;;;;0.60;0.50;;;9.60;99.90;;;;;;6326328;22;20445;-67
2024/04/25 01:09:35;;;;;;;0.87;0.63;;;9.60;99.90;;;;;;6327297;22;20433;-66
2024/04/25 01:12:02;;;;;;;1.33;0.70;;;9.60;99.90;;;;;;6327295;22;20011;-66
2024/04/25 01:14:28;;;;;;;0.83;0.63;;;9.70;99.90;;;;;;6326623;22;20000;-67
2024/04/25 01:16:55;;;;;;;0.70;0.60;;;9.70;99.90;;;;;;6327200;22;20313;-67
2024/04/25 01:19:21;;;;;;;0.50;0.50;;;9.70;99.90;;;;;;6327302;22;20088;-66
2024/04/25 01:21:48;;;;;;;1.63;0.60;;;9.70;99.90;;;;;;6327279;22;20011;-67
2024/04/25 01:24:23;;;;;;;1.13;0.55;;;9.70;99.90;;;;;;6327437;22;19996;-66
2024/04/25 01:26:49;;;;;;;1.50;0.47;;;9.70;99.90;;;;;;6327727;22;20003;-66
2024/04/25 01:29:17;;;;;;;0.70;0.50;;;9.70;99.90;;;;;;6327429;22;20011;-66
2024/04/25 01:31:44;;;;;;;0.80;0.40;;;9.70;99.90;;;;;;6327157;22;20004;-67
2024/04/25 01:34:14;;;;;;;1.60;0.67;;;9.70;99.90;;;;;;6326250;22;20317;-67
2024/04/25 01:36:43;;;;;;;0.80;0.60;;;9.70;99.90;;;;;;6326682;22;20342;-67
2024/04/25 01:39:10;;;;;;;0.30;0.30;;;9.70;99.90;;;;;;6327120;22;20274;-67
2024/04/25 01:41:36;;;;;;;0.37;0.30;;;9.70;99.90;;;;;;6328274;22;20000;-67
2024/04/25 01:44:02;;;;;;;0.60;0.60;;;9.70;99.90;;;;;;6328113;22;20302;-67
2024/04/25 01:54:24;;;;;;;;;;;;;;;;;;;;;
2024/04/25 02:04:04;;;;;;;1.00;0.43;;;9.60;99.90;;;;;;6001213;23;20056;-67
2024/04/25 02:06:30;;;;;;;2.90;0.70;;;9.60;99.90;;;;;;6007077;23;20009;-67
2024/04/25 02:12:18;;;;;;;0.60;0.60;;;9.60;99.90;;;;;;6044626;23;20011;-67
2024/04/25 02:14:44;;;;;;;0.80;0.50;;;9.60;99.90;;;;;;6044877;23;20004;-67
2024/04/25 02:17:10;;;;;;;1.97;0.50;;;9.60;99.90;;;;;;6167161;22;20010;-67
2024/04/25 02:19:36;;;;;;;1.97;0.60;;;9.50;99.90;;;;;;6327163;22;20000;-67
2024/04/25 02:25:14;;;;;;;0.70;0.63;;;9.50;99.90;;;;;;6327608;22;20010;-67
2024/04/25 02:27:39;;;;;;;;;;;9.50;99.90;;;;;;6327761;22;20072;-67
2024/04/25 02:30:06;;;;;;;0.77;0.60;;;9.50;99.90;;;;;;6327214;22;20299;-66
2024/04/25 02:32:32;;;;;;;1.47;0.70;;;9.60;99.90;;;;;;6326838;22;20000;-66
2024/04/25 02:34:58;;;;;;;1.23;0.73;;;9.50;99.90;;;;;;6285093;22;20068;-67
2024/04/25 02:37:24;;;;;;;1.23;0.60;;;9.50;99.90;;;;;;6327449;22;20422;-67
2024/04/25 02:39:50;;;;;;;1.00;0.60;;;9.50;99.90;;;;;;6326858;22;20011;-67
2024/04/25 02:42:15;;;;;;;1.60;0.70;;;9.50;99.90;;;;;;6327368;22;20533;-67
2024/04/25 02:44:41;;;;;;;1.20;0.87;;;9.50;99.90;;;;;;6326785;22;20032;-67
2024/04/25 02:47:07;;;;;;;0.90;0.60;;;9.50;99.90;;;;;;6324620;22;19992;-67
2024/04/25 02:49:33;;;;;;;1.23;0.70;;;9.50;99.90;;;;;;6327046;22;20409;-67
2024/04/25 02:51:58;;;;;;;1.70;0.90;;;9.40;99.90;;;;;;6327340;22;20000;-65
2024/04/25 02:54:24;;;;;;;4.37;1.43;;;9.40;99.90;;;;;;6326702;22;20014;-67
2024/04/25 02:56:50;;;;;;;0.60;0.60;;;9.40;99.90;;;;;;6284801;22;20075;-67
2024/04/25 02:59:16;;;;;;;0.60;0.60;;;9.40;99.90;;;;;;6327384;22;20016;-66
2024/04/25 03:01:42;;;;;;;0.55;0.50;;;9.40;99.90;;;;;;6328590;22;19995;-66
2024/04/25 03:04:07;;;;;;;0.80;0.63;;;9.40;99.90;;;;;;6328593;22;20011;-67
2024/04/25 03:06:33;;;;;;;0.70;0.50;;;9.40;99.90;;;;;;6329261;22;20000;-66
2024/04/25 03:08:59;;;;;;;0.53;0.50;;;9.40;99.90;;;;;;6286279;22;19995;-67
2024/04/25 03:11:25;;;;;;;0.60;0.50;;;9.40;99.90;;;;;;6329142;22;20295;-66
2024/04/25 03:13:51;;;;;;;0.50;0.50;;;9.40;99.90;;;;;;6329480;22;20076;-66
2024/04/25 03:16:16;;;;;;;0.80;0.60;;;9.30;99.90;;;;;;6329445;22;20337;-66
2024/04/25 03:18:42;;;;;;;3.47;0.70;;;9.30;99.90;;;;;;6329632;22;20002;-66
2024/04/25 03:21:08;;;;;;;1.73;0.60;;;9.30;99.90;;;;;;6329989;22;20007;-67
2024/04/25 03:23:36;;;;;;;2.77;0.70;;;9.30;99.90;;;;;;6330015;22;20000;-66
2024/04/25 03:50:20;;;;;;;1.48;0.30;;;9.20;99.20;;;;;;5915491;24;20084;-67
2024/04/25 03:52:47;;;;;;;1.90;0.43;;;9.20;99.10;;;;;;5906784;24;20340;-67
2024/04/25 03:55:13;;;;;;;0.40;0.40;;;9.20;99.20;;;;;;6041256;23;20879;-67
2024/04/25 03:57:38;;;;;;;0.40;0.40;;;9.20;98.90;;;;;;6267858;22;19996;-66
2024/04/25 04:00:05;;;;;;;1.07;0.50;;;9.20;98.60;;;;;;6245845;22;20424;-67
2024/04/25 04:02:31;;;;;;;2.20;0.47;;;9.20;98.10;;;;;;6327662;22;20010;-66
2024/04/25 04:04:57;;;;;;;0.40;0.40;;;9.20;98.00;;;;;;6327538;22;20091;-67
2024/04/25 04:07:22;;;;;;;0.70;0.40;;;9.20;98.10;;;;;;6326959;22;19996;-67
2024/04/25 04:09:48;;;;;;;0.63;0.50;;;9.20;98.00;;;;;;6327279;22;20128;-67
2024/04/25 04:12:14;;;;;;;1.53;0.53;;;9.10;98.40;;;;;;6327083;22;20008;-66
2024/04/25 04:14:43;;;;;;;1.50;0.40;;;9.20;98.10;;;;;;6327958;22;19992;-67
2024/04/25 04:17:09;;;;;;;0.30;0.30;;;9.10;97.90;;;;;;6326805;22;20336;-67
2024/04/25 04:19:35;;;;;;;0.93;0.40;;;9.20;97.90;;;;;;6326522;22;19996;-67
2024/04/25 04:22:01;;;;;;;1.90;0.40;;;9.10;97.50;;;;;;6327560;22;20445;-67
2024/04/25 04:24:27;;;;;;;0.60;0.50;;;9.20;97.10;;;;;;6327124;22;19999;-67
2024/04/25 04:26:53;;;;;;;0.50;0.50;;;9.20;96.80;;;;;;6327185;22;20000;-67
2024/04/25 04:29:18;;;;;;;1.70;0.50;;;9.10;96.70;;;;;;6326874;22;20004;-66
2024/04/25 04:31:44;;;;;;;1.50;0.70;;;9.10;96.70;;;;;;6284266;22;20000;-66
2024/04/25 04:34:10;;;;;;;0.40;0.40;;;9.10;97.00;;;;;;6327072;22;20004;-67
2024/04/25 04:36:36;;;;;;;0.53;0.40;;;9.10;97.00;;;;;;6327566;22;20019;-66
2024/04/25 04:39:02;;;;;;;0.90;0.40;;;9.10;96.80;;;;;;6327922;22;20082;-67
2024/04/25 04:41:28;;;;;;;0.83;0.53;;;9.10;96.70;;;;;;6327235;22;20004;-67
2024/04/25 04:43:54;;;;;;;1.03;0.40;;;9.10;96.80;;;;;;6327286;22;20425;-66
2024/04/25 04:46:20;;;;;;;0.70;0.50;;;9.10;96.80;;;;;;6327585;22;20014;-67
2024/04/25 04:48:48;;;;;;;1.37;0.70;;;9.20;96.90;;;;;;6326215;22;19996;-67
2024/04/25 04:51:14;;;;;;;1.33;0.63;;;9.20;96.90;;;;;;6326482;22;20004;-67
2024/04/25 04:53:40;;;;;;;0.60;0.40;;;9.20;97.00;;;;;;6325812;22;20000;-66
2024/04/25 04:56:06;;;;;;;0.90;0.40;;;9.20;97.00;;;;;;6284489;22;20000;-67
2024/04/25 04:58:35;;;;;;;1.00;0.80;;;9.20;96.70;;;;;;6325887;22;20448;-66
2024/04/25 05:01:02;;;;;;;1.33;0.70;;;9.20;96.50;;;;;;6324908;22;20119;-66
2024/04/25 05:03:28;;;;;;;2.03;0.87;;;9.20;96.90;;;;;;6326282;22;20366;-66
2024/04/25 05:06:41;;;;;;;1.20;0.80;;;9.20;97.20;;;;;;6327933;22;19999;-66
2024/04/25 05:09:39;;;;;;;2.45;1.20;;;9.30;98.40;;;;;;6152915;22;20052;-66
2024/04/25 05:12:37;;;;;;;2.17;1.27;;;9.20;98.90;;;;;;6267398;22;20032;-66
2024/04/25 05:15:29;;;;;;;2.53;1.43;;;9.20;99.30;;;;;;6324050;22;20000;-66
2024/04/25 05:22:21;;;;;;;2.65;1.65;;;9.20;99.90;;;;;;6086165;23;20031;-67
2024/04/25 05:25:04;;;;;;;2.77;1.40;;;9.30;99.90;;;;;;6025069;23;20123;-67
2024/04/25 05:27:45;;;;;;;1.90;1.45;;;9.30;99.90;;;;;;6174123;23;20449;-67
2024/04/25 05:30:20;;;;;;;1.77;1.33;;;9.20;99.90;;;;;;6179076;23;20012;-67
2024/04/25 05:32:46;;;;;;;1.70;1.20;;;9.20;99.90;;;;;;6306820;22;20375;-66
2024/04/25 05:35:12;;;;;;;2.33;1.20;;;9.20;99.90;;;;;;6326271;22;19999;-67
2024/04/25 05:37:38;;;;;;;1.93;1.00;;;9.20;99.90;;;;;;6326980;22;20313;-66
2024/04/25 05:40:05;;;;;;;2.30;0.90;;;9.20;99.90;;;;;;6326817;22;20000;-66
2024/04/25 05:42:31;;;;;;;1.40;1.00;;;9.20;99.90;;;;;;6326969;22;20023;-67
2024/04/25 05:44:57;;;;;;;1.23;0.90;;;9.20;99.90;;;;;;6326602;22;20136;-66
2024/04/25 05:47:22;;;;;;;1.93;0.77;;;9.20;99.90;;;;;;6326002;22;20008;-66
2024/04/25 05:49:49;;;;;;;2.67;0.50;;;9.30;99.90;;;;;;6327299;22;20000;-66
2024/04/25 05:52:15;;;;;;;1.27;0.50;;;9.20;99.90;;;;;;6326347;22;20010;-67
2024/04/25 05:54:41;;;;;;;0.67;0.30;;;9.20;99.80;;;;;;6327072;22;20003;-67
2024/04/25 05:57:08;;;;;;;0.40;0.33;;;9.20;99.20;;;;;;6325918;22;20000;-67
2024/04/25 05:59:34;;;;;;;1.23;0.80;;;9.30;98.50;;;;;;6327000;22;19996;-67
2024/04/25 06:02:00;;;;;;;1.50;0.60;;;9.30;98.10;;;;;;6326597;22;20432;-66
2024/04/25 06:04:26;;;;;;;2.33;0.87;;;9.30;97.90;;;;;;6346274;22;19996;-77
2024/04/25 06:06:52;;;;;;;2.77;0.70;;;9.40;98.40;;;;;;6474876;22;20037;-74
2024/04/25 06:09:18;;;;;;;1.33;0.53;;;9.30;98.50;;;;;;6474844;22;19998;-78
2024/04/25 06:11:43;;;;;;;1.00;0.53;;;9.40;98.20;;;;;;6474685;22;19994;-78
2024/04/25 06:14:09;;;;;;;1.23;0.67;;;9.40;98.00;;;;;;6474709;22;20048;-77
2024/04/25 06:16:35;;;;;;;1.27;0.67;;;9.40;98.00;;;;;;6475160;22;20009;-74
2024/04/25 06:19:02;;;;;;;1.57;0.70;;;9.50;98.40;;;;;;6474889;22;20317;-78
2024/04/25 06:21:28;;;;;;;0.87;0.60;;;9.40;98.70;;;;;;6475139;22;19997;-79
2024/04/25 06:23:54;;;;;;;1.20;0.60;;;9.50;99.00;;;;;;6474411;22;20012;-75
2024/04/25 06:26:21;;;;;;;0.67;0.40;;;9.40;99.10;;;;;;6474489;22;20013;-76
2024/04/25 06:28:46;;;;;;;1.50;0.80;;;9.40;98.70;;;;;;6474768;22;20566;-77
2024/04/25 06:31:12;;;;;;;1.30;0.50;;;9.40;98.80;;;;;;6474365;22;20032;-78
2024/04/25 06:33:39;;;;;;;1.00;0.50;;;9.50;98.90;;;;;;6474407;22;20006;-79
2024/04/25 06:36:05;;;;;;;0.80;0.50;;;9.50;99.30;;;;;;6474833;22;20002;-76
2024/04/25 06:38:31;;;;;;;1.10;0.60;;;9.50;99.70;;;;;;6475487;22;20084;-76
2024/04/25 06:40:57;;;;;;;1.13;0.70;;;9.50;99.90;;;;;;6475377;22;19997;-76
2024/04/25 06:43:22;;;;;;;1.87;0.57;;;9.50;99.90;;;;;;6474722;22;20076;-73
2024/04/25 06:45:48;;;;;;;1.07;0.70;;;9.50;99.90;;;;;;6474129;22;20105;-75
2024/04/25 06:48:14;;;;;;;1.93;0.80;;;9.50;99.90;;;;;;6474906;22;20359;-72
2024/04/25 06:50:41;;;;;;;2.17;1.20;;;9.60;99.90;;;;;;6474126;22;20001;-73
2024/04/25 06:53:08;;;;;;;1.33;0.80;;;9.60;99.90;;;;;;6474267;22;20302;-75
2024/04/25 06:55:33;;;;;;;4.10;0.77;;;9.60;99.90;;;;;;6476405;22;19997;-77
2024/04/25 06:57:59;;;;;;;1.40;0.90;;;9.60;99.90;;;;;;6476833;22;19998;-76
2024/04/25 07:00:25;;;;;;;1.37;0.90;;;9.60;99.90;;;;;;6476662;22;19998;-73
2024/04/25 07:02:51;;;;;;;1.30;0.70;;;9.60;99.90;;;;;;6476231;22;20069;-77
2024/04/25 07:05:17;;;;;;;1.33;0.90;;;9.60;99.90;;;;;;6476240;22;19994;-73
2024/04/25 07:07:43;;;;;;;1.30;0.73;;;9.60;99.90;;;;;;6476208;22;19998;-78
2024/04/25 07:10:09;;;;;;;1.10;0.67;;;9.60;99.90;;;;;;6476354;22;20056;-76
2024/04/25 07:12:35;;;;;;;1.00;0.80;;;9.60;99.90;;;;;;6476931;22;20012;-76
2024/04/25 07:15:06;;;;;;;0.97;0.80;;;9.60;99.90;;;;;;6475487;22;20005;-75
2024/04/25 07:17:35;;;;;;;1.80;0.97;;;9.60;99.90;;;;;;6475613;22;20010;-76
2024/04/25 07:20:01;;;;;;;2.57;1.03;;;9.60;99.90;;;;;;6475719;22;19997;-78
2024/04/25 07:22:26;;;;;;;2.03;0.90;;;9.70;99.90;;;;;;6475308;22;20076;-78
2024/04/25 07:24:52;;;;;;;2.10;1.27;;;9.60;99.90;;;;;;6475557;22;20040;-78
2024/04/25 07:27:17;;;;;;;1.58;1.00;;;9.70;99.90;;;;;;6475735;22;20419;-74
2024/04/25 07:29:45;;;;;;;0.87;0.80;;;9.60;99.90;;;;;;6476432;22;19998;-77
2024/04/25 07:32:11;;;;;;;1.10;0.63;;;9.60;99.90;;;;;;6476234;22;19998;-76
2024/04/25 07:34:37;;;;;;;2.13;0.97;;;9.70;99.90;;;;;;6476463;22;20155;-77
2024/04/25 07:37:02;;;;;;;1.67;1.03;;;9.70;99.90;;;;;;6476332;22;20382;-76
2024/04/25 07:39:28;;;;;;;2.67;1.47;;;9.70;99.90;;;;;;6432154;22;19994;-75
2024/04/25 07:41:54;;;;;;;1.60;1.10;;;9.80;99.90;;;;;;6474989;22;20002;-78
2024/04/25 07:44:20;;;;;;;1.40;0.80;;;9.80;99.90;;;;;;6472260;22;20008;-75
2024/04/25 07:46:45;;;;;;;1.23;1.10;;;9.80;99.90;;;;;;6473148;22;20449;-77
2024/04/25 07:49:15;;;;;;;1.33;0.63;;;9.90;99.90;;;;;;6476087;22;20013;-74
2024/04/25 07:51:41;;;;;;;1.17;0.80;;;9.90;99.90;;;;;;6478482;22;20013;-79
2024/04/25 07:54:08;;;;;;;0.90;0.80;;;9.90;99.80;;;;;;6478152;22;20328;-77
2024/04/25 07:56:33;;;;;;;3.07;1.17;;;9.90;99.80;;;;;;6478256;22;20451;-80
2024/04/25 07:58:59;;;;;;;1.50;0.90;;;9.90;99.90;;;;;;6477641;22;19997;-78
2024/04/25 08:01:24;;;;;;;2.37;0.73;;;10.00;99.90;;;;;;6477692;22;20012;-76
2024/04/25 08:03:51;;;;;;;0.50;0.50;;;10.00;99.90;;;;;;6477906;22;20314;-78
2024/04/25 08:06:17;;;;;;;1.37;0.80;;;10.00;99.90;;;;;;6477508;22;20041;-78
2024/04/25 08:08:43;;;;;;;1.00;0.60;;;10.00;99.90;;;;;;6478195;22;20326;-77
2024/04/25 08:11:10;;;;;;;2.23;0.60;;;10.00;99.60;;;;;;6477831;22;20370;-78
2024/04/25 08:13:36;;;;;;;1.63;0.60;;;10.00;99.10;;;;;;6477497;22;20076;-76
2024/04/25 08:16:01;;;;;;;1.17;0.60;;;10.00;99.00;;;;;;6477731;22;19994;-77
2024/04/25 08:18:27;;;;;;;0.60;0.60;;;10.10;98.90;;;;;;6478153;22;20012;-76
2024/04/25 08:20:53;;;;;;;1.33;0.70;;;10.10;98.60;;;;;;6477634;22;20016;-76
2024/04/25 08:23:19;;;;;;;1.23;0.60;;;10.10;98.40;;;;;;6477842;22;19998;-76
2024/04/25 08:25:44;;;;;;;0.83;0.60;;;10.10;98.10;;;;;;6478049;22;19998;-75
2024/04/25 08:28:10;;;;;;;1.43;0.43;;;10.10;98.10;;;;;;6433291;22;20002;-77
2024/04/25 08:30:36;;;;;;;0.90;0.60;;;10.10;97.70;;;;;;6477412;22;20520;-74
2024/04/25 08:33:02;;;;;;;0.50;0.50;;;10.10;97.80;;;;;;6476431;22;20002;-78
2024/04/25 08:35:28;;;;;;;0.80;0.40;;;10.10;97.70;;;;;;6473657;22;20320;-75
2024/04/25 08:37:54;;;;;;;0.90;0.50;;;10.10;97.40;;;;;;6471045;22;19997;-72
2024/04/25 08:40:20;;;;;;;1.20;0.60;;;10.10;97.20;;;;;;6477352;22;20068;-78
2024/04/25 08:42:50;;;;;;;1.03;0.50;;;10.20;97.20;;;;;;6474256;22;19994;-77
2024/04/25 08:45:16;;;;;;;0.60;0.40;;;10.20;97.10;;;;;;6473616;22;19998;-76
2024/04/25 08:47:42;;;;;;;0.97;0.53;;;10.20;96.60;;;;;;6472812;22;20009;-76
2024/04/25 08:50:09;;;;;;;3.33;0.70;;;10.20;96.20;;;;;;6473382;22;20025;-74
2024/04/25 08:52:41;;;;;;;1.13;0.53;;;10.30;96.30;;;;;;6474153;22;20295;-78
2024/04/25 08:55:08;;;;;;;0.70;0.60;;;10.20;96.30;;;;;;6428249;22;20002;-76
2024/04/25 08:57:34;;;;;;;2.70;0.70;;;10.30;96.30;;;;;;6475913;22;20073;-78
2024/04/25 09:00:01;;;;;;;1.00;0.63;;;10.30;96.30;;;;;;6477858;22;20008;-74
2024/04/25 09:02:29;;;;;;;1.00;0.60;;;10.30;96.20;;;;;;6477589;22;20001;-76
2024/04/25 09:04:56;;;;;;;1.23;0.60;;;10.30;96.30;;;;;;6475594;22;20012;-77
2024/04/25 09:07:23;;;;;;;0.70;0.60;;;10.30;96.60;;;;;;6476314;22;20030;-76
2024/04/25 09:09:49;;;;;;;0.60;0.50;;;10.30;96.10;;;;;;6477586;22;20001;-77
2024/04/25 09:12:15;;;;;;;1.03;0.43;;;10.30;95.60;;;;;;6478005;22;20307;-78
2024/04/25 09:14:40;;;;;;;0.70;0.60;;;10.30;95.70;;;;;;6477990;22;20006;-78
2024/04/25 09:17:15;;;;;;;0.50;0.40;;;10.40;95.80;;;;;;6476990;22;20017;-77
2024/04/25 09:19:42;;;;;;;0.85;0.65;;;10.40;95.10;;;;;;6477607;22;20367;-77
2024/04/25 09:22:07;;;;;;;0.80;0.55;;;10.40;94.30;;;;;;6477604;22;20427;-75
2024/04/25 09:24:33;;;;;;;0.80;0.60;;;10.40;94.40;;;;;;6477750;22;20008;-78
2024/04/25 09:27:00;;;;;;;0.73;0.50;;;10.40;95.00;;;;;;6477660;22;20017;-76
2024/04/25 09:29:25;;;;;;;1.03;0.70;;;10.40;94.90;;;;;;6477351;22;19998;-78
2024/04/25 09:31:52;;;;;;;0.60;0.50;;;10.40;94.80;;;;;;6478843;22;20016;-78
2024/04/25 09:34:18;;;;;;;0.80;0.60;;;10.40;94.70;;;;;;6433736;22;20430;-76
2024/04/25 09:36:44;;;;;;;0.70;0.50;;;10.50;94.90;;;;;;6477540;22;19997;-76
2024/04/25 09:39:10;;;;;;;2.53;0.40;;;10.50;95.10;;;;;;6477261;22;20430;-77
2024/04/25 09:41:37;;;;;;;0.57;0.35;;;10.50;94.80;;;;;;6477540;22;20080;-78
2024/04/25 09:44:03;;;;;;;2.53;0.55;;;10.50;94.60;;;;;;6477084;22;20002;-77
2024/04/25 09:46:37;;;;;;;0.55;0.30;;;10.60;94.50;;;;;;6476851;22;19998;-75
2024/04/25 09:49:05;;;;;;;1.25;0.43;;;10.60;94.50;;;;;;6477153;22;20009;-78
2024/04/25 09:51:39;;;;;;;0.95;0.57;;;10.60;94.30;;;;;;6477258;22;20005;-78
2024/04/25 09:54:26;;;;;;;0.50;0.40;;;10.70;94.00;;;;;;6477280;22;19994;-78
2024/04/25 09:56:57;;;;;;;1.02;0.65;;;10.70;93.50;;;;;;6477295;22;20047;-77
2024/04/25 09:59:29;;;;;;;0.50;0.35;;;10.70;93.80;;;;;;6477108;22;20006;-80
2024/04/25 10:01:56;;;;;;;1.77;0.70;;;10.70;93.80;;;;;;6477453;22;19994;-78
2024/04/25 10:04:24;;;;;;;1.08;0.40;;;10.80;93.90;;;;;;6475867;22;20411;-78
2024/04/25 10:06:51;;;;;;;1.08;0.60;;;10.80;94.30;;;;;;6475708;22;20302;-75
2024/04/25 10:09:17;;;;;;;2.38;0.43;;;10.80;94.10;;;;;;6475650;22;20382;-77
2024/04/25 10:11:48;;;;;;;0.60;0.45;;;10.90;94.20;;;;;;6476268;22;20455;-77
2024/04/25 10:14:27;;;;;;;1.15;0.63;;;10.90;94.10;;;;;;6476054;22;20318;-77
2024/04/25 10:16:53;;;;;;;0.43;0.40;;;11.00;93.90;;;;;;6476039;22;20030;-74
2024/04/25 10:19:19;;;;;;;3.65;0.47;;;11.00;93.40;;;;;;6476077;22;20002;-73
2024/04/25 10:21:48;;;;;;;1.13;0.40;;;11.00;92.40;;;;;;6476745;22;20076;-76
2024/04/25 10:24:14;;;;;;;0.82;0.50;;;11.10;92.10;;;;;;6476009;22;20427;-77
2024/04/25 10:26:46;;;;;;;1.27;0.57;;;11.10;92.00;;;;;;6476314;22;20013;-77
2024/04/25 10:29:12;;;;;;;0.50;0.40;;;11.10;91.60;;;;;;6432334;22;19998;-77
2024/04/25 10:31:39;;;;;;;0.80;0.57;;;11.10;91.70;;;;;;6476344;22;20009;-77
2024/04/25 10:34:06;;;;;;;1.00;0.50;;;11.10;91.90;;;;;;6475784;22;20398;-78
2024/04/25 10:36:35;;;;;;;1.90;0.50;;;11.10;92.00;;;;;;6476702;22;19998;-77
2024/04/25 10:39:01;;;;;;;1.25;0.70;;;11.20;92.10;;;;;;6482293;22;19998;-78
2024/04/25 10:41:36;;;;;;;1.02;0.60;;;11.20;92.10;;;;;;6482300;22;20001;-76
2024/04/25 10:44:03;;;;;;;1.25;0.80;;;11.20;92.20;;;;;;6482684;22;20058;-80
2024/04/25 10:46:30;;;;;;;1.15;0.70;;;11.20;92.40;;;;;;6475191;22;20002;-78
2024/04/25 10:48:56;;;;;;;3.40;0.70;;;11.30;92.20;;;;;;6476309;22;20006;-82
2024/04/25 10:51:22;;;;;;;0.80;0.60;;;11.30;92.20;;;;;;6476459;22;20347;-83
2024/04/25 10:53:48;;;;;;;3.00;0.60;;;11.30;92.20;;;;;;6476194;22;20316;-82
2024/04/25 10:56:16;;;;;;;0.80;0.60;;;11.30;92.20;;;;;;6476020;22;20009;-81
2024/04/25 10:58:52;;;;;;;0.75;0.60;;;11.30;92.00;;;;;;6475943;22;20102;-81
2024/04/25 11:01:28;;;;;;;4.28;0.77;;;11.30;92.00;;;;;;6476179;22;20490;-80
2024/04/25 11:03:58;;;;;;;2.15;0.60;;;11.30;92.40;;;;;;6476223;22;20008;-81
2024/04/25 11:06:25;;;;;;;0.60;0.60;;;11.30;92.10;;;;;;6473680;22;19997;-78
2024/04/25 11:08:52;;;;;;;2.85;0.77;;;11.30;91.80;;;;;;6475149;22;20315;-77
2024/04/25 11:11:18;;;;;;;0.68;0.57;;;11.30;91.70;;;;;;6469961;22;20357;-78
2024/04/25 11:13:44;;;;;;;0.88;0.60;;;11.30;91.60;;;;;;6467633;22;19998;-78
2024/04/25 11:16:10;;;;;;;1.20;0.70;;;11.30;91.50;;;;;;6473534;22;20002;-79
2024/04/25 11:18:37;;;;;;;1.02;0.65;;;11.30;91.40;;;;;;6475308;22;20016;-77
2024/04/25 11:21:04;;;;;;;3.63;0.60;;;11.30;91.50;;;;;;6431875;22;20016;-77
2024/04/25 11:23:30;;;;;;;1.13;0.60;;;11.30;91.60;;;;;;6477582;22;20042;-77
2024/04/25 11:25:59;;;;;;;0.60;0.52;;;11.30;91.50;;;;;;6479009;22;20294;-77
2024/04/25 11:28:25;;;;;;;4.47;1.65;;;11.30;91.40;;;;;;6477744;22;20016;-77
2024/04/25 11:30:51;;;;;;;0.88;0.60;;;11.30;91.50;;;;;;6476605;22;20017;-77
2024/04/25 11:33:22;;;;;;;1.05;0.65;;;11.30;91.50;;;;;;6478296;22;20002;-76
2024/04/25 11:35:47;;;;;;;1.30;0.60;;;11.40;91.10;;;;;;6478944;22;19998;-76
2024/04/25 11:38:15;;;;;;;1.02;0.52;;;11.30;90.80;;;;;;6478478;22;20575;-76
2024/04/25 11:40:42;;;;;;;0.55;0.50;;;11.40;91.00;;;;;;6478390;22;19994;-73
2024/04/25 11:43:08;;;;;;;0.70;0.60;;;11.40;90.80;;;;;;6478209;22;19994;-74
2024/04/25 11:45:37;;;;;;;0.60;0.60;;;11.40;90.40;;;;;;6478448;22;20002;-76
2024/04/25 11:48:05;;;;;;;0.50;0.50;;;11.40;90.30;;;;;;6478266;22;19994;-77
2024/04/25 11:50:31;;;;;;;0.88;0.60;;;11.40;89.60;;;;;;6477189;22;20105;-77
2024/04/25 11:52:57;;;;;;;1.00;0.43;;;11.40;89.70;;;;;;6478083;22;20009;-77
2024/04/25 11:55:22;;;;;;;0.80;0.60;;;11.40;87.50;;;;;;6478695;22;19997;-77
2024/04/25 11:57:48;;;;;;;0.55;0.50;;;11.40;87.30;;;;;;6478727;22;20308;-77
2024/04/25 12:00:14;;;;;;;1.02;0.57;;;11.30;88.40;;;;;;6478309;22;19994;-78
2024/04/25 12:02:39;;;;;;;1.45;0.70;;;11.40;89.10;;;;;;6478004;22;20076;-77
2024/04/25 12:05:08;;;;;;;1.85;0.60;;;11.30;89.00;;;;;;6477881;22;20017;-77
2024/04/25 12:07:34;;;;;;;1.92;0.68;;;11.30;89.20;;;;;;6478628;22;20006;-77
2024/04/25 12:10:00;;;;;;;4.18;0.80;;;11.40;89.30;;;;;;6478344;22;20013;-77
2024/04/25 12:12:25;;;;;;;0.57;0.57;;;11.40;89.20;;;;;;6478014;22;20001;-78
2024/04/25 12:14:51;;;;;;;3.75;0.95;;;11.40;89.40;;;;;;6478229;22;19998;-74
2024/04/25 12:17:17;;;;;;;0.70;0.57;;;11.40;88.20;;;;;;6477757;22;20315;-76
2024/04/25 12:19:43;;;;;;;1.02;0.60;;;11.40;88.40;;;;;;6478528;22;20080;-77
2024/04/25 12:22:09;;;;;;;0.80;0.60;;;11.40;88.30;;;;;;6478093;22;20002;-77
2024/04/25 12:24:34;;;;;;;1.15;0.77;;;11.40;88.30;;;;;;6478321;22;20052;-77
2024/04/25 12:27:00;;;;;;;1.10;0.47;;;11.40;88.30;;;;;;6478399;22;20045;-76
2024/04/25 12:29:26;;;;;;;1.40;0.70;;;11.40;87.60;;;;;;6478165;22;20359;-78
2024/04/25 12:31:52;;;;;;;1.35;0.55;;;11.50;87.70;;;;;;6478146;22;20017;-77
2024/04/25 12:34:18;;;;;;;1.17;0.73;;;11.50;87.70;;;;;;6477717;22;20288;-77
2024/04/25 12:36:44;;;;;;;0.90;0.60;;;11.50;88.00;;;;;;6478299;22;19994;-77
2024/04/25 12:39:10;;;;;;;1.23;0.60;;;11.50;88.20;;;;;;6477788;22;20031;-77
2024/04/25 12:41:36;;;;;;;0.85;0.60;;;11.50;88.80;;;;;;6478158;22;19997;-77
2024/04/25 12:44:01;;;;;;;2.58;0.70;;;11.50;88.80;;;;;;6477826;22;19998;-77
2024/04/25 12:46:27;;;;;;;1.50;0.65;;;11.50;88.40;;;;;;6478195;22;20009;-77
2024/04/25 12:48:52;;;;;;;0.47;0.35;;;11.50;88.40;;;;;;6477733;22;19998;-76
2024/04/25 12:51:18;;;;;;;0.85;0.60;;;11.50;88.30;;;;;;6478083;22;20013;-76
2024/04/25 12:53:44;;;;;;;0.93;0.65;;;11.50;88.00;;;;;;6477671;22;20319;-75
2024/04/25 12:56:10;;;;;;;0.50;0.50;;;11.50;88.10;;;;;;6477802;22;20418;-76
2024/04/25 12:58:40;;;;;;;0.75;0.45;;;11.60;87.90;;;;;;6477829;22;19997;-75
2024/04/25 13:01:06;;;;;;;0.98;0.70;;;11.60;87.10;;;;;;6433022;22;20288;-77
2024/04/25 13:03:32;;;;;;;1.42;0.68;;;11.60;87.30;;;;;;6478139;22;20311;-77
2024/04/25 13:05:58;;;;;;;0.68;0.50;;;11.60;87.50;;;;;;6477684;22;20001;-75
2024/04/25 13:08:23;;;;;;;0.60;0.50;;;11.60;87.90;;;;;;6477741;22;20002;-76
2024/04/25 13:10:49;;;;;;;0.60;0.50;;;11.70;86.80;;;;;;6477561;22;20076;-76
2024/04/25 13:13:19;;;;;;;3.95;0.80;;;11.70;86.20;;;;;;6477550;22;20002;-77
2024/04/25 13:15:46;;;;;;;0.85;0.50;;;11.70;86.80;;;;;;6477742;22;20006;-77
2024/04/25 13:18:16;;;;;;;0.93;0.55;;;11.70;86.50;;;;;;6477267;22;19994;-76
2024/04/25 13:20:42;;;;;;;0.65;0.50;;;11.80;85.70;;;;;;6477271;22;19998;-76
2024/04/25 13:23:07;;;;;;;0.70;0.57;;;11.80;85.80;;;;;;6477602;22;20016;-72
2024/04/25 13:25:36;;;;;;;0.70;0.60;;;11.80;86.00;;;;;;6478043;22;20310;-77
2024/04/25 13:28:05;;;;;;;0.50;0.50;;;11.80;86.40;;;;;;6477571;22;19998;-76
2024/04/25 13:30:32;;;;;;;0.50;0.50;;;11.80;86.90;;;;;;6477701;22;20328;-76
2024/04/25 13:32:57;;;;;;;1.20;0.70;;;11.90;87.10;;;;;;6477473;22;19997;-75
2024/04/25 13:35:23;;;;;;;0.93;0.70;;;11.90;86.60;;;;;;6477643;22;20013;-77
2024/04/25 13:37:49;;;;;;;0.50;0.40;;;11.90;86.30;;;;;;6477201;22;20002;-76
2024/04/25 13:40:14;;;;;;;1.50;0.50;;;12.00;85.80;;;;;;6477501;22;19994;-76
2024/04/25 13:42:40;;;;;;;1.95;0.68;;;12.00;85.20;;;;;;6477111;22;20419;-76
2024/04/25 13:45:06;;;;;;;1.17;0.65;;;12.00;85.50;;;;;;6476681;22;20001;-76
2024/04/25 13:47:32;;;;;;;1.58;0.90;;;12.00;85.90;;;;;;6477379;22;20001;-76
2024/04/25 13:49:58;;;;;;;0.65;0.60;;;12.00;86.20;;;;;;6477326;22;20334;-76
2024/04/25 13:52:24;;;;;;;4.15;0.70;;;12.10;86.20;;;;;;6476556;22;19997;-76
2024/04/25 13:54:49;;;;;;;0.63;0.50;;;12.10;84.90;;;;;;6477022;22;20008;-76
2024/04/25 13:57:15;;;;;;;1.85;0.60;;;12.10;85.80;;;;;;6477160;22;20415;-76
2024/04/25 13:59:40;;;;;;;0.90;0.77;;;12.10;85.50;;;;;;6477200;22;20010;-76
2024/04/25 14:02:06;;;;;;;3.38;0.85;;;12.10;85.10;;;;;;6477211;22;20013;-72